createdAt,value
2018-02-15T00:02:27.318Z,-2.90
2018-02-15T00:04:55.449Z,-2.80
2018-02-15T00:07:23.591Z,-2.70
2018-02-15T00:09:51.710Z,-2.60
2018-02-15T00:12:19.886Z,-2.70
2018-02-15T00:14:48.796Z,-2.90
2018-02-15T00:17:16.957Z,-2.90
2018-02-15T00:19:45.201Z,-3.00
2018-02-15T00:22:13.344Z,-3.00
2018-02-15T00:24:41.469Z,-2.90
2018-02-15T00:27:09.613Z,-3.00
2018-02-15T00:29:37.747Z,-3.00
2018-02-15T00:32:05.902Z,-3.00
2018-02-15T00:34:34.034Z,-3.00
2018-02-15T00:37:02.182Z,-2.90
2018-02-15T00:39:30.309Z,-3.00
2018-02-15T00:41:58.445Z,-3.10
2018-02-15T00:44:26.602Z,-3.00
2018-02-15T00:46:54.752Z,-3.10
2018-02-15T00:49:23.659Z,-3.20
2018-02-15T00:51:51.799Z,-3.20
2018-02-15T00:54:19.935Z,-3.20
2018-02-15T00:56:48.883Z,-3.00
2018-02-15T00:59:17.010Z,-3.10
2018-02-15T01:01:45.160Z,-3.00
2018-02-15T01:04:13.287Z,-3.10
2018-02-15T01:06:41.440Z,-3.10
2018-02-15T01:09:09.564Z,-3.10
2018-02-15T01:11:37.709Z,-3.00
2018-02-15T01:14:05.842Z,-3.10
2018-02-15T01:16:34.748Z,-3.10
2018-02-15T01:19:02.889Z,-3.10
2018-02-15T01:21:31.809Z,-3.10
2018-02-15T01:23:59.934Z,-3.10
2018-02-15T01:26:28.111Z,-2.90
2018-02-15T01:28:56.607Z,-2.90
2018-02-15T01:31:25.508Z,-2.80
2018-02-15T01:33:53.650Z,-2.80
2018-02-15T01:36:21.781Z,-2.80
2018-02-15T01:38:49.933Z,-2.70
2018-02-15T01:41:18.078Z,-2.80
2018-02-15T01:43:47.009Z,-2.80
2018-02-15T01:46:15.145Z,-2.80
2018-02-15T01:48:44.060Z,-2.70
2018-02-15T01:51:12.190Z,-2.70
2018-02-15T01:53:40.320Z,-2.70
2018-02-15T01:56:08.440Z,-2.70
2018-02-15T01:58:37.348Z,-2.70
2018-02-15T02:01:05.498Z,-2.70
2018-02-15T02:03:33.666Z,-2.60
2018-02-15T02:06:01.776Z,-2.80
2018-02-15T02:08:29.939Z,-2.70
2018-02-15T02:10:58.377Z,-2.70
2018-02-15T02:13:26.512Z,-2.70
2018-02-15T02:15:54.652Z,-2.80
2018-02-15T02:18:23.547Z,-2.80
2018-02-15T02:20:51.688Z,-2.80
2018-02-15T02:23:19.823Z,-2.80
2018-02-15T02:25:47.957Z,-2.90
2018-02-15T02:28:16.089Z,-2.80
2018-02-15T02:30:44.239Z,-2.90
2018-02-15T02:33:12.348Z,-2.90
2018-02-15T02:35:40.496Z,-3.00
2018-02-15T02:38:08.656Z,-2.90
2018-02-15T02:40:36.881Z,-3.00
2018-02-15T02:43:05.780Z,-3.00
2018-02-15T02:45:33.915Z,-3.00
2018-02-15T02:48:02.048Z,-3.00
2018-02-15T02:50:30.187Z,-3.00
2018-02-15T02:52:58.470Z,-3.00
2018-02-15T02:55:26.613Z,-2.90
2018-02-15T02:57:54.829Z,-2.90
2018-02-15T03:00:22.971Z,-2.90
2018-02-15T03:02:51.904Z,-2.90
2018-02-15T03:05:20.035Z,-3.00
2018-02-15T03:07:48.928Z,-3.00
2018-02-15T03:10:17.896Z,-3.10
2018-02-15T03:12:46.146Z,-3.10
2018-02-15T03:15:14.637Z,-3.00
2018-02-15T03:17:42.792Z,-3.00
2018-02-15T03:20:10.913Z,-3.00
2018-02-15T03:22:39.818Z,-2.90
2018-02-15T03:25:07.939Z,-2.90
2018-02-15T03:27:36.085Z,-2.80
2018-02-15T03:30:04.229Z,-2.70
2018-02-15T03:32:32.377Z,-2.70
2018-02-15T03:35:00.500Z,-2.70
2018-02-15T03:37:28.648Z,-2.70
2018-02-15T03:39:56.776Z,-2.70
2018-02-15T03:55:15.460Z,-2.80
2018-02-15T03:57:43.621Z,-2.70
2018-02-15T04:00:11.901Z,-2.70
2018-02-15T04:02:40.032Z,-2.70
2018-02-15T04:05:09.726Z,-2.80
2018-02-15T04:07:37.825Z,-2.80
2018-02-15T04:10:06.750Z,-2.80
2018-02-15T04:12:34.904Z,-2.80
2018-02-15T04:15:03.044Z,-2.70
2018-02-15T04:17:31.944Z,-2.70
2018-02-15T04:20:00.099Z,-2.70
2018-02-15T04:22:28.219Z,-2.80
2018-02-15T04:24:56.361Z,-2.80
2018-02-15T04:27:24.501Z,-2.80
2018-02-15T04:29:52.736Z,-2.70
2018-02-15T04:32:20.865Z,-2.70
2018-02-15T04:34:49.076Z,-2.60
2018-02-15T04:37:17.210Z,-2.60
2018-02-15T04:39:46.093Z,-2.60
2018-02-15T04:42:15.754Z,-2.60
2018-02-15T04:44:43.872Z,-2.60
2018-02-15T04:47:12.030Z,-2.60
2018-02-15T04:49:40.156Z,-2.60
2018-02-15T04:52:08.432Z,-2.60
2018-02-15T04:54:36.572Z,-2.60
2018-02-15T04:57:04.717Z,-2.50
2018-02-15T04:59:32.844Z,-2.50
2018-02-15T05:02:01.004Z,-2.40
2018-02-15T05:04:29.139Z,-2.40
2018-02-15T05:06:57.276Z,-2.40
2018-02-15T05:09:25.405Z,-2.40
2018-02-15T05:11:54.384Z,-2.40
2018-02-15T05:14:22.666Z,-2.40
2018-02-15T05:16:50.782Z,-2.40
2018-02-15T05:19:18.917Z,-2.40
2018-02-15T05:21:47.065Z,-2.50
2018-02-15T05:24:15.189Z,-2.40
2018-02-15T05:26:43.879Z,-2.40
2018-02-15T05:29:11.980Z,-2.40
2018-02-15T05:31:40.110Z,-2.40
2018-02-15T05:34:08.251Z,-2.40
2018-02-15T05:36:37.145Z,-2.30
2018-02-15T05:39:06.052Z,-2.30
2018-02-15T05:41:34.181Z,-2.40
2018-02-15T05:44:02.316Z,-2.30
2018-02-15T05:46:30.452Z,-2.30
2018-02-15T05:48:58.628Z,-2.20
2018-02-15T05:51:26.889Z,-2.20
2018-02-15T05:53:55.204Z,-2.20
2018-02-15T05:56:23.449Z,-2.10
2018-02-15T05:58:52.417Z,-2.00
2018-02-15T06:01:20.540Z,-2.10
2018-02-15T06:03:48.681Z,-2.10
2018-02-15T06:06:16.813Z,-2.00
2018-02-15T06:08:46.456Z,-2.00
2018-02-15T06:11:14.608Z,-2.10
2018-02-15T06:13:42.744Z,-2.00
2018-02-15T06:16:10.868Z,-2.00
2018-02-15T06:18:39.769Z,-2.00
2018-02-15T06:21:07.905Z,-2.00
2018-02-15T06:23:36.050Z,-2.00
2018-02-15T06:26:04.172Z,-2.00
2018-02-15T06:28:33.077Z,-2.00
2018-02-15T06:31:01.206Z,-2.00
2018-02-15T06:33:29.356Z,-2.00
2018-02-15T06:35:57.487Z,-2.00
2018-02-15T06:38:25.620Z,-2.00
2018-02-15T06:40:53.738Z,-2.00
2018-02-15T06:43:21.888Z,-2.00
2018-02-15T06:45:50.781Z,-1.90
2018-02-15T06:48:18.949Z,-2.00
2018-02-15T06:50:47.925Z,-1.90
2018-02-15T06:53:16.830Z,-1.90
2018-02-15T06:55:45.717Z,-1.90
2018-02-15T06:58:14.925Z,-1.90
2018-02-15T07:00:43.108Z,-1.90
2018-02-15T07:03:11.272Z,-1.90
2018-02-15T07:05:39.404Z,-1.80
2018-02-15T07:08:07.556Z,-1.80
2018-02-15T07:10:35.740Z,-1.80
2018-02-15T07:13:03.890Z,-1.80
2018-02-15T07:15:32.037Z,-1.80
2018-02-15T07:18:00.185Z,-1.80
2018-02-15T07:20:29.066Z,-1.70
2018-02-15T07:22:57.976Z,-1.70
2018-02-15T07:25:26.104Z,-1.70
2018-02-15T07:27:54.252Z,-1.70
2018-02-15T07:30:22.377Z,-1.60
2018-02-15T07:32:51.285Z,-1.60
2018-02-15T07:35:19.424Z,-1.60
2018-02-15T07:37:48.312Z,-1.60
2018-02-15T07:40:17.271Z,-1.50
2018-02-15T07:42:45.375Z,-1.50
2018-02-15T07:45:14.277Z,-1.40
2018-02-15T07:47:43.182Z,-1.40
2018-02-15T07:50:11.332Z,-1.40
2018-02-15T07:52:40.219Z,-1.30
2018-02-15T07:55:09.133Z,-1.30
2018-02-15T07:57:37.265Z,-1.40
2018-02-15T08:00:05.400Z,-1.30
2018-02-15T08:02:33.700Z,-1.30
2018-02-15T08:05:01.860Z,-1.30
2018-02-15T08:07:29.993Z,-1.20
2018-02-15T08:09:58.156Z,-1.20
2018-02-15T08:12:26.317Z,-1.20
2018-02-15T08:14:55.227Z,-0.90
2018-02-15T08:17:23.353Z,-0.90
2018-02-15T08:19:51.495Z,-1.00
2018-02-15T08:22:20.385Z,-1.00
2018-02-15T08:24:48.545Z,-1.00
2018-02-15T08:27:16.772Z,-1.00
2018-02-15T08:29:45.693Z,-1.00
2018-02-15T08:32:13.816Z,-1.00
2018-02-15T08:34:41.964Z,-0.90
2018-02-15T08:37:10.092Z,-0.90
2018-02-15T08:39:38.241Z,-0.90
2018-02-15T08:42:06.398Z,-0.90
2018-02-15T08:44:34.534Z,-0.80
2018-02-15T08:47:02.673Z,-0.80
2018-02-15T08:49:31.596Z,-0.80
2018-02-15T08:51:59.731Z,-0.80
2018-02-15T08:54:27.890Z,-0.70
2018-02-15T08:56:56.016Z,-0.70
2018-02-15T08:59:24.157Z,-0.70
2018-02-15T09:01:52.294Z,-0.60
2018-02-15T09:04:21.226Z,-0.50
2018-02-15T09:06:49.357Z,-0.50
2018-02-15T09:09:17.500Z,-0.40
2018-02-15T09:11:45.669Z,-0.40
2018-02-15T09:14:31.919Z,-0.30
2018-02-15T09:17:00.053Z,-0.30
2018-02-15T09:19:28.198Z,-0.20
2018-02-15T09:21:56.326Z,-0.30
2018-02-15T09:24:26.891Z,-0.30
2018-02-15T09:26:55.033Z,-0.20
2018-02-15T09:29:23.178Z,-0.30
2018-02-15T09:31:51.393Z,-0.20
2018-02-15T09:34:19.585Z,-0.10
2018-02-15T09:36:48.460Z,0.00
2018-02-15T09:39:16.597Z,-0.10
2018-02-15T09:41:44.751Z,0.00
2018-02-15T09:44:12.878Z,0.00
2018-02-15T09:46:41.006Z,0.00
2018-02-15T09:49:09.135Z,0.00
2018-02-15T09:51:37.317Z,0.10
2018-02-15T09:54:05.472Z,0.00
2018-02-15T09:56:33.605Z,0.10
2018-02-15T09:59:02.598Z,0.10
2018-02-15T10:01:31.514Z,0.10
2018-02-15T10:03:59.641Z,0.10
2018-02-15T10:06:27.776Z,0.00
2018-02-15T10:08:55.920Z,0.10
2018-02-15T10:11:24.810Z,0.20
2018-02-15T10:13:52.937Z,0.20
2018-02-15T10:16:21.101Z,0.20
2018-02-15T10:18:49.229Z,0.20
2018-02-15T10:21:17.370Z,0.30
2018-02-15T10:23:46.264Z,0.40
2018-02-15T10:26:15.193Z,0.40
2018-02-15T10:28:43.320Z,0.40
2018-02-15T10:31:12.836Z,0.40
2018-02-15T10:33:42.064Z,0.50
2018-02-15T10:36:12.427Z,0.40
2018-02-15T10:38:41.216Z,0.40
2018-02-15T10:41:09.348Z,0.50
2018-02-15T10:43:37.486Z,0.50
2018-02-15T10:46:05.596Z,0.50
2018-02-15T10:48:39.591Z,0.60
2018-02-15T10:51:07.741Z,0.60
2018-02-15T10:53:35.853Z,0.60
2018-02-15T10:56:04.619Z,0.70
2018-02-15T10:58:32.786Z,0.80
2018-02-15T11:01:06.641Z,0.80
2018-02-15T11:03:36.290Z,0.70
2018-02-15T11:06:05.744Z,0.70
2018-02-15T11:08:35.562Z,0.70
2018-02-15T11:11:06.627Z,0.60
2018-02-15T11:13:39.380Z,0.80
2018-02-15T11:16:09.430Z,0.70
2018-02-15T11:18:39.671Z,0.70
2018-02-15T11:21:10.987Z,0.80
2018-02-15T11:23:41.679Z,0.70
2018-02-15T11:26:12.569Z,0.70
2018-02-15T11:28:41.896Z,0.70
2018-02-15T11:31:11.443Z,0.70
2018-02-15T11:33:39.587Z,0.70
2018-02-15T11:36:07.713Z,0.80
2018-02-15T11:38:35.857Z,0.80
2018-02-15T11:41:03.998Z,0.70
2018-02-15T11:43:32.158Z,0.80
2018-02-15T11:46:00.289Z,0.90
2018-02-15T11:48:28.527Z,0.90
2018-02-15T11:50:57.546Z,0.90
2018-02-15T11:53:25.850Z,0.90
2018-02-15T11:55:53.978Z,0.90
2018-02-15T11:58:22.101Z,0.90
2018-02-15T12:00:50.229Z,0.90
2018-02-15T12:03:18.363Z,0.80
2018-02-15T12:05:46.483Z,0.90
2018-02-15T12:08:14.869Z,0.90
2018-02-15T12:10:42.990Z,1.00
2018-02-15T12:13:11.153Z,1.00
2018-02-15T12:15:39.287Z,1.00
2018-02-15T12:18:07.461Z,1.00
2018-02-15T12:20:35.706Z,1.10
2018-02-15T12:23:03.828Z,1.10
2018-02-15T12:25:31.973Z,1.10
2018-02-15T12:28:00.098Z,1.20
2018-02-15T12:30:28.225Z,1.20
2018-02-15T12:32:56.348Z,1.30
2018-02-15T12:35:24.487Z,1.30
2018-02-15T12:37:52.609Z,1.20
2018-02-15T12:40:20.766Z,1.10
2018-02-15T12:42:48.913Z,1.20
2018-02-15T12:45:17.061Z,1.20
2018-02-15T12:47:45.177Z,1.10
2018-02-15T12:50:13.382Z,1.20
2018-02-15T12:52:41.512Z,1.20
2018-02-15T12:55:09.652Z,1.10
2018-02-15T12:57:37.782Z,0.90
2018-02-15T13:00:05.916Z,0.90
2018-02-15T13:02:34.032Z,0.90
2018-02-15T13:05:02.189Z,0.80
2018-02-15T13:07:31.067Z,0.80
2018-02-15T13:10:00.719Z,0.60
2018-02-15T13:12:40.575Z,0.60
2018-02-15T13:15:20.482Z,0.60
2018-02-15T13:17:48.603Z,0.70
2018-02-15T13:20:18.549Z,0.70
2018-02-15T13:22:49.581Z,0.60
2018-02-15T13:25:17.710Z,0.30
2018-02-15T13:27:57.580Z,0.40
2018-02-15T13:30:26.652Z,0.40
2018-02-15T13:32:54.787Z,0.50
2018-02-15T13:35:23.700Z,0.30
2018-02-15T13:37:51.897Z,0.30
2018-02-15T13:40:20.074Z,0.20
2018-02-15T13:42:48.194Z,0.00
2018-02-15T13:45:17.088Z,0.10
2018-02-15T13:47:45.980Z,0.10
2018-02-15T13:50:14.104Z,0.10
2018-02-15T13:52:42.240Z,0.10
2018-02-15T13:55:10.361Z,0.10
2018-02-15T13:57:39.401Z,0.10
2018-02-15T14:00:07.542Z,0.10
2018-02-15T14:02:36.439Z,0.10
2018-02-15T14:05:05.360Z,0.20
2018-02-15T14:07:33.473Z,0.20
2018-02-15T14:10:01.619Z,0.30
2018-02-15T14:12:29.735Z,0.10
2018-02-15T14:14:58.644Z,0.00
2018-02-15T14:17:26.769Z,0.00
2018-02-15T14:19:54.903Z,0.10
2018-02-15T14:22:23.023Z,0.00
2018-02-15T14:24:51.357Z,-0.10
2018-02-15T14:27:19.525Z,-0.10
2018-02-15T14:29:47.682Z,-0.10
2018-02-15T14:32:15.805Z,-0.10
2018-02-15T14:34:43.932Z,-0.10
2018-02-15T14:37:12.074Z,-0.10
2018-02-15T14:39:40.197Z,0.00
2018-02-15T14:42:08.374Z,-0.10
2018-02-15T14:44:37.086Z,-0.10
2018-02-15T14:47:05.991Z,-0.10
2018-02-15T14:49:34.887Z,-0.10
2018-02-15T14:52:03.029Z,-0.20
2018-02-15T14:54:31.168Z,-0.20
2018-02-15T14:56:59.328Z,-0.20
2018-02-15T14:59:27.460Z,-0.20
2018-02-15T15:01:56.383Z,-0.10
2018-02-15T15:04:24.557Z,-0.10
2018-02-15T15:06:52.685Z,0.00
2018-02-15T15:09:21.978Z,-0.10
2018-02-15T15:11:50.162Z,-0.10
2018-02-15T15:14:18.292Z,0.00
2018-02-15T15:16:46.456Z,-0.20
2018-02-15T15:19:14.607Z,-0.30
2018-02-15T15:21:42.841Z,-0.10
2018-02-15T15:24:10.993Z,-0.20
2018-02-15T15:26:39.147Z,-0.10
2018-02-15T15:29:07.277Z,-0.20
2018-02-15T15:31:35.437Z,0.00
2018-02-15T15:34:03.582Z,0.00
2018-02-15T15:36:32.368Z,0.00
2018-02-15T15:39:00.505Z,-0.10
2018-02-15T15:41:28.682Z,0.00
2018-02-15T15:43:56.817Z,-0.10
2018-02-15T15:46:26.064Z,-0.10
2018-02-15T15:48:55.723Z,0.00
2018-02-15T15:51:23.844Z,0.00
2018-02-15T15:53:51.985Z,0.00
2018-02-15T15:56:20.519Z,0.00
2018-02-15T15:58:48.637Z,0.00
2018-02-15T16:01:16.791Z,0.00
2018-02-15T16:03:44.937Z,0.00
2018-02-15T16:06:13.063Z,0.00
2018-02-15T16:08:42.505Z,0.00
2018-02-15T16:11:11.704Z,0.00
2018-02-15T16:13:41.417Z,0.00
2018-02-15T16:16:10.297Z,0.00
2018-02-15T16:18:40.944Z,-0.10
2018-02-15T16:21:10.194Z,-0.10
2018-02-15T16:23:38.975Z,-0.10
2018-02-15T16:26:07.435Z,-0.10
2018-02-15T16:28:36.226Z,0.00
2018-02-15T16:31:06.481Z,-0.10
2018-02-15T16:33:37.767Z,0.00
2018-02-15T16:36:07.554Z,-0.10
2018-02-15T16:38:36.832Z,-0.20
2018-02-15T16:41:05.009Z,-0.10
2018-02-15T16:43:35.661Z,-0.10
2018-02-15T16:46:05.835Z,-0.10
2018-02-15T16:48:33.990Z,-0.10
2018-02-15T16:51:05.293Z,-0.10
2018-02-15T16:53:33.720Z,-0.10
2018-02-15T16:56:03.084Z,-0.10
2018-02-15T16:58:31.969Z,-0.10
2018-02-15T17:01:01.848Z,0.00
2018-02-15T17:03:31.685Z,0.00
2018-02-15T17:06:01.033Z,0.10
2018-02-15T17:08:29.649Z,0.10
2018-02-15T17:10:58.913Z,0.10
2018-02-15T17:13:27.554Z,0.00
2018-02-15T17:15:55.704Z,0.00
2018-02-15T17:18:23.830Z,0.10
2018-02-15T17:20:52.356Z,-0.10
2018-02-15T17:23:20.480Z,-0.10
2018-02-15T17:25:48.622Z,-0.10
2018-02-15T17:28:16.748Z,0.00
2018-02-15T17:30:45.662Z,0.00
2018-02-15T17:33:13.894Z,0.00
2018-02-15T17:35:42.056Z,0.00
2018-02-15T17:38:10.196Z,0.00
2018-02-15T17:40:38.660Z,-0.10
2018-02-15T17:43:06.803Z,0.00
2018-02-15T17:45:34.972Z,0.00
2018-02-15T17:48:03.201Z,0.10
2018-02-15T17:50:31.337Z,0.10
2018-02-15T17:53:00.285Z,0.10
2018-02-15T17:55:28.526Z,0.10
2018-02-15T17:57:56.664Z,0.10
2018-02-15T18:00:24.883Z,0.20
2018-02-15T18:02:53.040Z,0.10
2018-02-15T18:05:21.853Z,0.20
2018-02-15T18:07:54.325Z,0.10
2018-02-15T18:10:22.985Z,0.20
2018-02-15T18:12:53.144Z,0.20
2018-02-15T18:15:21.627Z,0.20
2018-02-15T18:17:50.316Z,0.20
2018-02-15T18:20:22.911Z,0.20
2018-02-15T18:22:53.642Z,0.20
2018-02-15T18:25:24.128Z,0.20
2018-02-15T18:27:53.829Z,0.30
2018-02-15T18:30:22.744Z,0.30
2018-02-15T18:32:50.921Z,0.30
2018-02-15T18:35:19.076Z,0.20
2018-02-15T18:37:48.171Z,0.30
2018-02-15T18:40:16.368Z,0.30
2018-02-15T18:42:46.102Z,0.40
2018-02-15T18:45:14.450Z,0.30
2018-02-15T18:47:43.196Z,0.30
2018-02-15T18:50:11.426Z,0.30
2018-02-15T18:52:39.664Z,0.30
2018-02-15T18:55:08.614Z,0.30
2018-02-15T18:57:37.421Z,0.30
2018-02-15T19:00:11.887Z,0.20
2018-02-15T19:02:40.172Z,0.20
2018-02-15T19:05:09.083Z,0.30
2018-02-15T19:07:37.397Z,0.20
2018-02-15T19:10:05.508Z,0.40
2018-02-15T19:12:34.408Z,0.30
2018-02-15T19:15:03.949Z,0.40
2018-02-15T19:17:32.455Z,0.30
2018-02-15T19:20:00.576Z,0.30
2018-02-15T19:22:29.056Z,0.30
2018-02-15T19:24:57.948Z,0.40
2018-02-15T19:27:26.076Z,0.40
2018-02-15T19:29:54.210Z,0.40
2018-02-15T19:32:22.346Z,0.30
2018-02-15T19:34:51.240Z,0.30
2018-02-15T19:37:19.396Z,0.30
2018-02-15T19:39:48.314Z,0.40
2018-02-15T19:42:16.498Z,0.40
2018-02-15T19:44:44.643Z,0.50
2018-02-15T19:47:13.521Z,0.30
2018-02-15T19:49:41.689Z,0.30
2018-02-15T19:52:09.889Z,0.40
2018-02-15T19:54:38.029Z,0.50
2018-02-15T19:57:06.182Z,0.50
2018-02-15T19:59:34.320Z,0.50
2018-02-15T20:02:02.474Z,0.50
2018-02-15T20:04:30.625Z,0.50
2018-02-15T20:06:59.530Z,0.40
2018-02-15T20:09:28.426Z,0.40
2018-02-15T20:11:56.585Z,0.40
2018-02-15T20:14:25.491Z,0.40
2018-02-15T20:16:53.631Z,0.40
2018-02-15T20:19:21.781Z,0.40
2018-02-15T20:21:50.322Z,0.50
2018-02-15T20:24:18.488Z,0.50
2018-02-15T20:26:52.156Z,0.50
2018-02-15T20:29:20.315Z,0.50
2018-02-15T20:31:49.958Z,0.40
2018-02-15T20:34:18.101Z,0.40
2018-02-15T20:36:46.229Z,0.50
2018-02-15T20:39:20.053Z,0.40
2018-02-15T20:41:48.186Z,0.40
2018-02-15T20:44:17.099Z,0.40
2018-02-15T20:46:45.221Z,0.40
2018-02-15T20:49:19.798Z,0.40
2018-02-15T20:51:53.643Z,0.40
2018-02-15T20:54:28.229Z,0.40
2018-02-15T20:56:56.406Z,0.40
2018-02-15T20:59:24.565Z,0.40
2018-02-15T21:01:52.690Z,0.50
2018-02-15T21:04:21.604Z,0.60
2018-02-15T21:06:49.744Z,0.60
2018-02-15T21:09:18.672Z,0.60
2018-02-15T21:11:46.836Z,0.50
2018-02-15T21:14:15.016Z,0.50
2018-02-15T21:16:43.149Z,0.50
2018-02-15T21:19:12.120Z,0.50
2018-02-15T21:21:40.343Z,0.50
2018-02-15T21:24:08.465Z,0.50
2018-02-15T21:26:36.981Z,0.60
2018-02-15T21:29:05.113Z,0.60
2018-02-15T21:31:33.257Z,0.50
2018-02-15T21:34:01.392Z,0.50
2018-02-15T21:36:30.401Z,0.50
2018-02-15T21:38:58.525Z,0.50
2018-02-15T21:41:26.706Z,0.50
2018-02-15T21:43:54.829Z,0.50
2018-02-15T21:46:22.980Z,0.50
2018-02-15T21:48:51.110Z,0.60
2018-02-15T21:51:19.321Z,0.60
2018-02-15T21:53:48.347Z,0.60
2018-02-15T21:56:18.048Z,0.60
2018-02-15T21:58:46.187Z,0.60
2018-02-15T22:01:15.069Z,0.60
2018-02-15T22:03:43.980Z,0.70
2018-02-15T22:06:12.111Z,0.60
2018-02-15T22:08:40.236Z,0.70
2018-02-15T22:11:08.457Z,0.70
2018-02-15T22:13:36.615Z,0.70
2018-02-15T22:16:04.727Z,0.70
2018-02-15T22:18:33.673Z,0.60
2018-02-15T22:21:04.678Z,0.60
2018-02-15T22:23:32.928Z,0.60
2018-02-15T22:26:01.066Z,0.70
2018-02-15T22:28:29.382Z,0.60
2018-02-15T22:30:58.325Z,0.70
2018-02-15T22:33:27.240Z,0.60
2018-02-15T22:36:05.710Z,0.60
2018-02-15T22:38:33.852Z,0.60
2018-02-15T22:41:01.992Z,0.70
2018-02-15T22:43:30.158Z,0.80
2018-02-15T22:45:59.042Z,0.80
2018-02-15T22:48:27.174Z,0.90
2018-02-15T22:50:55.392Z,0.80
2018-02-15T22:53:23.516Z,0.70
2018-02-15T22:55:51.654Z,0.60
2018-02-15T22:58:19.790Z,0.60
2018-02-15T23:00:47.912Z,0.60
2018-02-15T23:03:16.052Z,0.70
2018-02-15T23:05:44.186Z,0.70
2018-02-15T23:08:12.347Z,0.60
2018-02-15T23:10:40.467Z,0.60
2018-02-15T23:13:09.389Z,0.70
2018-02-15T23:15:37.529Z,0.70
2018-02-15T23:18:06.418Z,0.70
2018-02-15T23:20:35.685Z,0.60
2018-02-15T23:23:03.796Z,0.60
2018-02-15T23:25:32.700Z,0.50
2018-02-15T23:28:00.831Z,0.50
2018-02-15T23:30:28.957Z,0.60
2018-02-15T23:32:57.085Z,0.60
2018-02-15T23:35:25.972Z,0.60
2018-02-15T23:37:54.118Z,0.60
2018-02-15T23:40:22.232Z,0.60
2018-02-15T23:42:51.146Z,0.60
2018-02-15T23:45:19.264Z,0.50
2018-02-15T23:47:47.401Z,0.60
2018-02-15T23:50:15.521Z,0.50
2018-02-15T23:52:44.425Z,0.50
2018-02-15T23:55:13.317Z,0.50
2018-02-15T23:57:42.217Z,0.60
